Terminal Aerodrome Forecast
Issued by NWS Upton, NY

Home | Current Version | Previous Version | Text Only | Print | Product List | Glossary On
Versions: 1 2 3 4 5 6 7 8 9 10 11 12 13 14 15 16 17 18 19 20 21 22 23 24 25 26 27 28 29 30 31 32 33
000
FTUS41 KOKX 290230 AAA
TAFBDR
TAF AMD
KBDR 290230Z 2903/2924 33012G19KT 6SM -SN SCT020 BKN040
      TEMPO 2903/2905 3SM -SN BKN020 BKN040
     FM290500 33012G19KT P6SM BKN040 BKN100
      TEMPO 2905/2907 5SM -SN
     FM290700 33012G18KT P6SM SCT040 BKN120
     FM291400 33010KT P6SM SCT250
     FM292100 25008KT P6SM SCT250=

USA.gov is the U.S. government's official web portal to all federal, state and local government web resources and services.